Aquasco, Maryland
Current Conditions -  °F | °C
As of 3:58 PM on Thursday 18 Dec 2014 (Local Time) from KADW Reporting Station
Scattered Clouds Scattered Clouds  
Wind Chill: 31°   Ceiling: Unl
Heat Index: 37°   Visibility: 10mi
Dew Point: 23°   Wind: 8mph
Humidity: 56%   Direction: 310°NW
Pressure: 30.09"   Gusts: NA
Location:  38.58°N, 76.73°W
Report Text: KADW 182058Z 31007KT 10SM SCT037 03/M05 A3009 RMK AO2A SLP193
Loading
Personal Weather Stations






























Interactive Weather Map New forecast layout! Learn more

10-Day Weather Forecast

Advertisements
Track Severe Weather on mobile